sensor_id;sensor_type;location;lat;lon;timestamp;P1;durP1;ratioP1;P2;durP2;ratioP2
54665;SDS011;40566;50.006;36.180;2023-07-20T00:02:04;6.68;;;2.13;;
54665;SDS011;40566;50.006;36.180;2023-07-20T00:07:05;7.00;;;2.53;;
54665;SDS011;40566;50.006;36.180;2023-07-20T00:12:06;10.48;;;3.38;;
54665;SDS011;40566;50.006;36.180;2023-07-20T00:17:07;11.27;;;3.33;;
54665;SDS011;40566;50.006;36.180;2023-07-20T00:22:08;9.82;;;3.17;;
54665;SDS011;40566;50.006;36.180;2023-07-20T00:27:09;6.60;;;3.17;;
54665;SDS011;40566;50.006;36.180;2023-07-20T00:32:09;9.70;;;3.20;;
54665;SDS011;40566;50.006;36.180;2023-07-20T00:37:10;7.65;;;3.25;;
54665;SDS011;40566;50.006;36.180;2023-07-20T00:42:10;9.38;;;3.60;;
54665;SDS011;40566;50.006;36.180;2023-07-20T00:47:11;9.40;;;2.88;;
54665;SDS011;40566;50.006;36.180;2023-07-20T00:52:12;7.55;;;3.38;;
54665;SDS011;40566;50.006;36.180;2023-07-20T00:57:15;10.30;;;3.25;;
54665;SDS011;40566;50.006;36.180;2023-07-20T01:02:16;7.45;;;3.30;;
54665;SDS011;40566;50.006;36.180;2023-07-20T01:07:26;12.57;;;4.13;;
54665;SDS011;40566;50.006;36.180;2023-07-20T01:17:43;15.13;;;4.72;;
54665;SDS011;40566;50.006;36.180;2023-07-20T01:28:11;8.32;;;4.10;;
54665;SDS011;40566;50.006;36.180;2023-07-20T01:33:23;10.93;;;4.60;;
54665;SDS011;40566;50.006;36.180;2023-07-20T01:38:26;10.73;;;4.60;;
54665;SDS011;40566;50.006;36.180;2023-07-20T01:43:27;10.30;;;4.65;;
54665;SDS011;40566;50.006;36.180;2023-07-20T01:48:27;9.05;;;5.00;;
54665;SDS011;40566;50.006;36.180;2023-07-20T01:53:28;11.05;;;5.07;;
54665;SDS011;40566;50.006;36.180;2023-07-20T01:58:29;11.00;;;4.97;;
54665;SDS011;40566;50.006;36.180;2023-07-20T02:03:29;8.13;;;3.92;;
54665;SDS011;40566;50.006;36.180;2023-07-20T02:08:30;7.72;;;3.75;;
54665;SDS011;40566;50.006;36.180;2023-07-20T02:13:31;8.15;;;3.90;;
54665;SDS011;40566;50.006;36.180;2023-07-20T02:18:32;9.15;;;3.97;;
54665;SDS011;40566;50.006;36.180;2023-07-20T02:23:33;10.82;;;4.25;;
54665;SDS011;40566;50.006;36.180;2023-07-20T02:28:33;11.93;;;4.40;;
54665;SDS011;40566;50.006;36.180;2023-07-20T02:33:34;6.70;;;3.50;;
54665;SDS011;40566;50.006;36.180;2023-07-20T02:38:34;14.40;;;3.55;;
54665;SDS011;40566;50.006;36.180;2023-07-20T02:43:35;7.97;;;3.20;;
54665;SDS011;40566;50.006;36.180;2023-07-20T02:48:36;9.68;;;3.50;;
54665;SDS011;40566;50.006;36.180;2023-07-20T02:53:37;8.43;;;3.47;;
54665;SDS011;40566;50.006;36.180;2023-07-20T02:58:40;8.90;;;3.50;;
54665;SDS011;40566;50.006;36.180;2023-07-20T03:03:43;9.82;;;3.75;;
54665;SDS011;40566;50.006;36.180;2023-07-20T03:08:46;9.35;;;4.30;;
54665;SDS011;40566;50.006;36.180;2023-07-20T03:13:52;13.40;;;5.93;;
54665;SDS011;40566;50.006;36.180;2023-07-20T03:18:52;14.55;;;6.65;;
54665;SDS011;40566;50.006;36.180;2023-07-20T03:23:53;14.02;;;6.60;;
54665;SDS011;40566;50.006;36.180;2023-07-20T03:28:53;13.45;;;4.10;;
54665;SDS011;40566;50.006;36.180;2023-07-20T03:33:54;7.55;;;2.92;;
54665;SDS011;40566;50.006;36.180;2023-07-20T03:38:54;8.82;;;3.08;;
54665;SDS011;40566;50.006;36.180;2023-07-20T03:43:55;4.78;;;2.40;;
54665;SDS011;40566;50.006;36.180;2023-07-20T03:48:56;6.10;;;2.80;;
54665;SDS011;40566;50.006;36.180;2023-07-20T03:53:56;7.13;;;2.80;;
54665;SDS011;40566;50.006;36.180;2023-07-20T03:58:57;6.85;;;2.80;;
54665;SDS011;40566;50.006;36.180;2023-07-20T04:03:57;11.40;;;3.92;;
54665;SDS011;40566;50.006;36.180;2023-07-20T04:08:58;14.18;;;5.03;;
54665;SDS011;40566;50.006;36.180;2023-07-20T04:13:58;10.07;;;5.15;;
54665;SDS011;40566;50.006;36.180;2023-07-20T04:18:59;11.38;;;5.63;;
54665;SDS011;40566;50.006;36.180;2023-07-20T04:23:59;10.07;;;5.38;;
54665;SDS011;40566;50.006;36.180;2023-07-20T04:29:00;6.47;;;3.17;;
54665;SDS011;40566;50.006;36.180;2023-07-20T04:34:01;7.78;;;3.15;;
54665;SDS011;40566;50.006;36.180;2023-07-20T04:39:01;5.47;;;2.72;;
54665;SDS011;40566;50.006;36.180;2023-07-20T04:44:04;11.88;;;4.63;;
54665;SDS011;40566;50.006;36.180;2023-07-20T04:49:05;10.77;;;3.45;;
54665;SDS011;40566;50.006;36.180;2023-07-20T04:54:06;7.82;;;3.13;;
54665;SDS011;40566;50.006;36.180;2023-07-20T04:59:06;10.13;;;3.30;;
54665;SDS011;40566;50.006;36.180;2023-07-20T05:04:07;7.75;;;2.25;;
54665;SDS011;40566;50.006;36.180;2023-07-20T05:09:08;11.40;;;3.30;;
54665;SDS011;40566;50.006;36.180;2023-07-20T05:14:08;6.63;;;2.60;;
54665;SDS011;40566;50.006;36.180;2023-07-20T05:19:09;7.47;;;2.70;;
54665;SDS011;40566;50.006;36.180;2023-07-20T05:24:09;7.80;;;2.40;;
54665;SDS011;40566;50.006;36.180;2023-07-20T05:29:10;6.20;;;2.75;;
54665;SDS011;40566;50.006;36.180;2023-07-20T05:34:11;11.25;;;2.92;;
54665;SDS011;40566;50.006;36.180;2023-07-20T05:39:11;7.07;;;3.20;;
54665;SDS011;40566;50.006;36.180;2023-07-20T05:44:12;8.00;;;2.28;;
54665;SDS011;40566;50.006;36.180;2023-07-20T05:49:13;6.90;;;2.00;;
54665;SDS011;40566;50.006;36.180;2023-07-20T05:54:13;5.03;;;2.08;;
54665;SDS011;40566;50.006;36.180;2023-07-20T05:59:17;7.40;;;1.88;;
54665;SDS011;40566;50.006;36.180;2023-07-20T06:04:17;6.22;;;2.13;;
54665;SDS011;40566;50.006;36.180;2023-07-20T06:09:18;3.47;;;1.35;;
54665;SDS011;40566;50.006;36.180;2023-07-20T06:14:19;5.78;;;1.67;;
54665;SDS011;40566;50.006;36.180;2023-07-20T06:19:20;7.03;;;1.88;;
54665;SDS011;40566;50.006;36.180;2023-07-20T06:24:22;8.25;;;1.63;;
54665;SDS011;40566;50.006;36.180;2023-07-20T06:29:23;5.68;;;1.77;;
54665;SDS011;40566;50.006;36.180;2023-07-20T06:34:24;3.83;;;1.65;;
54665;SDS011;40566;50.006;36.180;2023-07-20T06:39:25;4.93;;;1.80;;
54665;SDS011;40566;50.006;36.180;2023-07-20T06:44:25;4.10;;;1.13;;
54665;SDS011;40566;50.006;36.180;2023-07-20T06:49:26;7.55;;;1.58;;
54665;SDS011;40566;50.006;36.180;2023-07-20T06:54:28;4.63;;;1.27;;
54665;SDS011;40566;50.006;36.180;2023-07-20T06:59:28;5.38;;;1.38;;
54665;SDS011;40566;50.006;36.180;2023-07-20T07:04:29;4.30;;;1.50;;
54665;SDS011;40566;50.006;36.180;2023-07-20T07:09:30;6.00;;;1.48;;
54665;SDS011;40566;50.006;36.180;2023-07-20T07:14:30;2.78;;;1.23;;
54665;SDS011;40566;50.006;36.180;2023-07-20T07:19:31;4.63;;;1.58;;
54665;SDS011;40566;50.006;36.180;2023-07-20T07:24:31;4.25;;;1.35;;
54665;SDS011;40566;50.006;36.180;2023-07-20T07:29:35;5.40;;;1.30;;
54665;SDS011;40566;50.006;36.180;2023-07-20T07:34:35;3.03;;;1.20;;
54665;SDS011;40566;50.006;36.180;2023-07-20T07:39:36;2.95;;;1.20;;
54665;SDS011;40566;50.006;36.180;2023-07-20T07:44:37;5.00;;;1.27;;
54665;SDS011;40566;50.006;36.180;2023-07-20T07:49:37;5.30;;;1.30;;
54665;SDS011;40566;50.006;36.180;2023-07-20T07:54:38;1.95;;;1.00;;
54665;SDS011;40566;50.006;36.180;2023-07-20T07:59:38;2.53;;;1.20;;
54665;SDS011;40566;50.006;36.180;2023-07-20T08:04:39;4.30;;;1.45;;
54665;SDS011;40566;50.006;36.180;2023-07-20T08:09:40;3.80;;;1.02;;
54665;SDS011;40566;50.006;36.180;2023-07-20T08:14:41;3.90;;;1.23;;
54665;SDS011;40566;50.006;36.180;2023-07-20T08:19:41;2.70;;;1.00;;
54665;SDS011;40566;50.006;36.180;2023-07-20T08:24:43;3.00;;;1.10;;
54665;SDS011;40566;50.006;36.180;2023-07-20T08:29:44;4.10;;;1.20;;
54665;SDS011;40566;50.006;36.180;2023-07-20T08:34:44;4.35;;;1.13;;
54665;SDS011;40566;50.006;36.180;2023-07-20T08:39:45;2.55;;;1.15;;
54665;SDS011;40566;50.006;36.180;2023-07-20T08:44:47;2.35;;;1.20;;
54665;SDS011;40566;50.006;36.180;2023-07-20T08:49:49;3.47;;;1.20;;
54665;SDS011;40566;50.006;36.180;2023-07-20T08:54:49;3.75;;;1.23;;
54665;SDS011;40566;50.006;36.180;2023-07-20T08:59:53;3.63;;;1.30;;
54665;SDS011;40566;50.006;36.180;2023-07-20T09:04:54;3.25;;;1.38;;
54665;SDS011;40566;50.006;36.180;2023-07-20T09:09:56;2.05;;;1.20;;
54665;SDS011;40566;50.006;36.180;2023-07-20T09:14:58;4.20;;;1.38;;
54665;SDS011;40566;50.006;36.180;2023-07-20T09:20:01;3.85;;;1.23;;
54665;SDS011;40566;50.006;36.180;2023-07-20T09:25:14;3.25;;;1.38;;
54665;SDS011;40566;50.006;36.180;2023-07-20T09:30:20;14.52;;;2.05;;
54665;SDS011;40566;50.006;36.180;2023-07-20T09:35:25;4.85;;;1.50;;
54665;SDS011;40566;50.006;36.180;2023-07-20T09:40:26;3.58;;;1.50;;
54665;SDS011;40566;50.006;36.180;2023-07-20T09:45:29;7.75;;;1.63;;
54665;SDS011;40566;50.006;36.180;2023-07-20T09:50:40;5.32;;;1.67;;
54665;SDS011;40566;50.006;36.180;2023-07-20T09:55:43;5.55;;;1.58;;
54665;SDS011;40566;50.006;36.180;2023-07-20T10:00:44;2.90;;;1.17;;
54665;SDS011;40566;50.006;36.180;2023-07-20T10:10:59;4.22;;;1.38;;
54665;SDS011;40566;50.006;36.180;2023-07-20T10:16:03;3.85;;;1.30;;
54665;SDS011;40566;50.006;36.180;2023-07-20T10:21:09;3.97;;;1.25;;
54665;SDS011;40566;50.006;36.180;2023-07-20T10:26:10;3.58;;;1.27;;
54665;SDS011;40566;50.006;36.180;2023-07-20T10:31:12;3.30;;;1.35;;
54665;SDS011;40566;50.006;36.180;2023-07-20T10:36:13;4.72;;;1.30;;
54665;SDS011;40566;50.006;36.180;2023-07-20T10:51:41;2.67;;;1.10;;
54665;SDS011;40566;50.006;36.180;2023-07-20T10:56:43;3.70;;;1.42;;
54665;SDS011;40566;50.006;36.180;2023-07-20T11:01:47;4.60;;;1.48;;
54665;SDS011;40566;50.006;36.180;2023-07-20T11:06:57;3.10;;;1.40;;
54665;SDS011;40566;50.006;36.180;2023-07-20T11:12:08;2.85;;;1.25;;
54665;SDS011;40566;50.006;36.180;2023-07-20T11:17:17;3.15;;;1.40;;
54665;SDS011;40566;50.006;36.180;2023-07-20T11:22:22;3.05;;;1.50;;
54665;SDS011;40566;50.006;36.180;2023-07-20T11:27:23;7.07;;;1.98;;
54665;SDS011;40566;50.006;36.180;2023-07-20T11:32:24;10.98;;;4.40;;
54665;SDS011;40566;50.006;36.180;2023-07-20T11:37:24;6.22;;;1.73;;
54665;SDS011;40566;50.006;36.180;2023-07-20T11:42:25;8.60;;;1.98;;
54665;SDS011;40566;50.006;36.180;2023-07-20T11:47:28;7.07;;;1.70;;
54665;SDS011;40566;50.006;36.180;2023-07-20T11:52:29;3.95;;;1.52;;
54665;SDS011;40566;50.006;36.180;2023-07-20T11:57:30;17.65;;;2.08;;
54665;SDS011;40566;50.006;36.180;2023-07-20T12:02:32;3.75;;;1.55;;
54665;SDS011;40566;50.006;36.180;2023-07-20T12:07:34;2.60;;;1.20;;
54665;SDS011;40566;50.006;36.180;2023-07-20T12:12:40;3.95;;;1.30;;
54665;SDS011;40566;50.006;36.180;2023-07-20T12:17:45;9.40;;;2.88;;
54665;SDS011;40566;50.006;36.180;2023-07-20T12:22:47;4.28;;;1.70;;
54665;SDS011;40566;50.006;36.180;2023-07-20T12:27:48;4.25;;;1.60;;
54665;SDS011;40566;50.006;36.180;2023-07-20T12:32:49;3.22;;;1.30;;
54665;SDS011;40566;50.006;36.180;2023-07-20T12:37:50;4.25;;;1.35;;
54665;SDS011;40566;50.006;36.180;2023-07-20T12:42:51;5.32;;;1.25;;
54665;SDS011;40566;50.006;36.180;2023-07-20T12:47:52;9.65;;;1.33;;
54665;SDS011;40566;50.006;36.180;2023-07-20T12:52:53;2.83;;;1.40;;
54665;SDS011;40566;50.006;36.180;2023-07-20T12:57:53;4.43;;;1.38;;
54665;SDS011;40566;50.006;36.180;2023-07-20T13:02:54;3.80;;;1.33;;
54665;SDS011;40566;50.006;36.180;2023-07-20T13:07:54;3.70;;;1.38;;
54665;SDS011;40566;50.006;36.180;2023-07-20T13:12:55;5.45;;;1.58;;
54665;SDS011;40566;50.006;36.180;2023-07-20T13:17:55;3.70;;;1.23;;
54665;SDS011;40566;50.006;36.180;2023-07-20T13:22:56;2.85;;;1.30;;
54665;SDS011;40566;50.006;36.180;2023-07-20T13:27:57;3.55;;;1.48;;
54665;SDS011;40566;50.006;36.180;2023-07-20T13:32:57;4.57;;;1.60;;
54665;SDS011;40566;50.006;36.180;2023-07-20T13:37:58;7.97;;;1.40;;
54665;SDS011;40566;50.006;36.180;2023-07-20T13:42:58;3.22;;;1.23;;
54665;SDS011;40566;50.006;36.180;2023-07-20T13:47:59;7.25;;;2.78;;
54665;SDS011;40566;50.006;36.180;2023-07-20T13:53:00;3.78;;;1.40;;
54665;SDS011;40566;50.006;36.180;2023-07-20T13:58:02;3.70;;;1.30;;
54665;SDS011;40566;50.006;36.180;2023-07-20T14:03:03;7.05;;;1.50;;
54665;SDS011;40566;50.006;36.180;2023-07-20T14:08:04;5.88;;;2.00;;
54665;SDS011;40566;50.006;36.180;2023-07-20T14:13:05;6.30;;;1.73;;
54665;SDS011;40566;50.006;36.180;2023-07-20T14:18:07;6.65;;;1.55;;
54665;SDS011;40566;50.006;36.180;2023-07-20T14:23:09;3.22;;;1.40;;
54665;SDS011;40566;50.006;36.180;2023-07-20T14:28:10;3.40;;;1.50;;
54665;SDS011;40566;50.006;36.180;2023-07-20T14:33:10;5.25;;;1.73;;
54665;SDS011;40566;50.006;36.180;2023-07-20T14:38:11;4.28;;;1.42;;
54665;SDS011;40566;50.006;36.180;2023-07-20T14:43:12;6.50;;;1.40;;
54665;SDS011;40566;50.006;36.180;2023-07-20T14:48:14;6.75;;;1.50;;
54665;SDS011;40566;50.006;36.180;2023-07-20T14:53:14;3.78;;;1.45;;
54665;SDS011;40566;50.006;36.180;2023-07-20T14:58:15;6.15;;;1.65;;
54665;SDS011;40566;50.006;36.180;2023-07-20T15:03:16;3.20;;;1.50;;
54665;SDS011;40566;50.006;36.180;2023-07-20T15:08:17;6.97;;;1.70;;
54665;SDS011;40566;50.006;36.180;2023-07-20T15:13:19;6.28;;;1.70;;
54665;SDS011;40566;50.006;36.180;2023-07-20T15:18:19;11.60;;;1.88;;
54665;SDS011;40566;50.006;36.180;2023-07-20T15:23:20;4.80;;;1.77;;
54665;SDS011;40566;50.006;36.180;2023-07-20T15:28:21;4.03;;;1.52;;
54665;SDS011;40566;50.006;36.180;2023-07-20T15:33:22;5.55;;;2.22;;
54665;SDS011;40566;50.006;36.180;2023-07-20T15:38:23;6.13;;;2.30;;
54665;SDS011;40566;50.006;36.180;2023-07-20T15:43:24;8.43;;;2.00;;
54665;SDS011;40566;50.006;36.180;2023-07-20T15:48:24;4.15;;;2.10;;
54665;SDS011;40566;50.006;36.180;2023-07-20T15:53:25;6.95;;;1.77;;
54665;SDS011;40566;50.006;36.180;2023-07-20T15:58:25;3.63;;;1.80;;
54665;SDS011;40566;50.006;36.180;2023-07-20T16:03:26;5.85;;;1.70;;
54665;SDS011;40566;50.006;36.180;2023-07-20T16:08:26;7.32;;;2.05;;
54665;SDS011;40566;50.006;36.180;2023-07-20T16:13:27;4.97;;;2.08;;
54665;SDS011;40566;50.006;36.180;2023-07-20T16:18:28;5.65;;;2.33;;
54665;SDS011;40566;50.006;36.180;2023-07-20T16:23:28;4.00;;;1.88;;
54665;SDS011;40566;50.006;36.180;2023-07-20T16:28:29;7.57;;;2.75;;
54665;SDS011;40566;50.006;36.180;2023-07-20T16:33:30;8.35;;;2.70;;
54665;SDS011;40566;50.006;36.180;2023-07-20T16:38:30;17.85;;;2.60;;
54665;SDS011;40566;50.006;36.180;2023-07-20T16:43:31;13.75;;;2.42;;
54665;SDS011;40566;50.006;36.180;2023-07-20T16:48:32;8.88;;;2.95;;
54665;SDS011;40566;50.006;36.180;2023-07-20T16:53:32;10.57;;;3.60;;
54665;SDS011;40566;50.006;36.180;2023-07-20T16:58:33;9.27;;;3.20;;
54665;SDS011;40566;50.006;36.180;2023-07-20T17:03:34;8.60;;;4.30;;
54665;SDS011;40566;50.006;36.180;2023-07-20T17:08:35;7.97;;;4.20;;
54665;SDS011;40566;50.006;36.180;2023-07-20T17:13:36;8.85;;;3.55;;
54665;SDS011;40566;50.006;36.180;2023-07-20T17:18:37;11.13;;;3.92;;
54665;SDS011;40566;50.006;36.180;2023-07-20T17:23:38;12.55;;;4.10;;
54665;SDS011;40566;50.006;36.180;2023-07-20T17:28:39;8.10;;;3.45;;
54665;SDS011;40566;50.006;36.180;2023-07-20T17:33:39;9.75;;;4.00;;
54665;SDS011;40566;50.006;36.180;2023-07-20T17:38:40;10.45;;;4.00;;
54665;SDS011;40566;50.006;36.180;2023-07-20T17:43:41;8.52;;;4.22;;
54665;SDS011;40566;50.006;36.180;2023-07-20T17:48:41;13.35;;;5.20;;
54665;SDS011;40566;50.006;36.180;2023-07-20T17:53:42;12.98;;;5.97;;
54665;SDS011;40566;50.006;36.180;2023-07-20T17:58:43;11.98;;;5.85;;
54665;SDS011;40566;50.006;36.180;2023-07-20T18:03:44;14.57;;;7.30;;
54665;SDS011;40566;50.006;36.180;2023-07-20T18:08:44;13.30;;;5.60;;
54665;SDS011;40566;50.006;36.180;2023-07-20T18:13:45;10.90;;;5.05;;
54665;SDS011;40566;50.006;36.180;2023-07-20T18:18:46;11.48;;;5.40;;
54665;SDS011;40566;50.006;36.180;2023-07-20T18:23:46;15.00;;;5.80;;
54665;SDS011;40566;50.006;36.180;2023-07-20T18:28:47;15.75;;;5.43;;
54665;SDS011;40566;50.006;36.180;2023-07-20T18:33:48;12.27;;;5.45;;
54665;SDS011;40566;50.006;36.180;2023-07-20T18:38:48;13.57;;;6.43;;
54665;SDS011;40566;50.006;36.180;2023-07-20T18:43:49;13.25;;;5.68;;
54665;SDS011;40566;50.006;36.180;2023-07-20T18:48:50;12.38;;;5.63;;
54665;SDS011;40566;50.006;36.180;2023-07-20T18:53:52;14.18;;;5.72;;
54665;SDS011;40566;50.006;36.180;2023-07-20T18:58:54;13.38;;;6.05;;
54665;SDS011;40566;50.006;36.180;2023-07-20T19:03:55;17.83;;;5.45;;
54665;SDS011;40566;50.006;36.180;2023-07-20T19:08:56;11.38;;;5.95;;
54665;SDS011;40566;50.006;36.180;2023-07-20T19:13:56;16.13;;;5.53;;
54665;SDS011;40566;50.006;36.180;2023-07-20T19:18:57;11.85;;;5.63;;
54665;SDS011;40566;50.006;36.180;2023-07-20T19:23:57;12.32;;;5.85;;
54665;SDS011;40566;50.006;36.180;2023-07-20T19:28:58;11.57;;;5.90;;
54665;SDS011;40566;50.006;36.180;2023-07-20T19:33:59;12.27;;;5.28;;
54665;SDS011;40566;50.006;36.180;2023-07-20T19:39:00;14.48;;;5.85;;
54665;SDS011;40566;50.006;36.180;2023-07-20T19:44:01;12.25;;;5.53;;
54665;SDS011;40566;50.006;36.180;2023-07-20T19:49:01;11.85;;;5.72;;
54665;SDS011;40566;50.006;36.180;2023-07-20T19:54:03;12.65;;;5.85;;
54665;SDS011;40566;50.006;36.180;2023-07-20T19:59:04;18.88;;;7.05;;
54665;SDS011;40566;50.006;36.180;2023-07-20T20:04:05;13.20;;;6.50;;
54665;SDS011;40566;50.006;36.180;2023-07-20T20:09:07;10.95;;;5.68;;
54665;SDS011;40566;50.006;36.180;2023-07-20T20:14:08;15.02;;;6.85;;
54665;SDS011;40566;50.006;36.180;2023-07-20T20:19:09;15.13;;;6.28;;
54665;SDS011;40566;50.006;36.180;2023-07-20T20:24:10;16.77;;;7.32;;
54665;SDS011;40566;50.006;36.180;2023-07-20T20:29:10;15.48;;;6.65;;
54665;SDS011;40566;50.006;36.180;2023-07-20T20:34:11;12.25;;;6.53;;
54665;SDS011;40566;50.006;36.180;2023-07-20T20:39:11;14.63;;;7.68;;
54665;SDS011;40566;50.006;36.180;2023-07-20T20:44:12;15.10;;;7.32;;
54665;SDS011;40566;50.006;36.180;2023-07-20T20:49:17;17.23;;;7.20;;
54665;SDS011;40566;50.006;36.180;2023-07-20T20:54:18;11.32;;;6.75;;
54665;SDS011;40566;50.006;36.180;2023-07-20T20:59:18;13.52;;;6.75;;
54665;SDS011;40566;50.006;36.180;2023-07-20T21:04:20;13.80;;;7.00;;
54665;SDS011;40566;50.006;36.180;2023-07-20T21:09:20;15.52;;;8.00;;
54665;SDS011;40566;50.006;36.180;2023-07-20T21:14:21;13.15;;;6.93;;
54665;SDS011;40566;50.006;36.180;2023-07-20T21:19:23;12.75;;;7.22;;
54665;SDS011;40566;50.006;36.180;2023-07-20T21:24:23;13.60;;;7.05;;
54665;SDS011;40566;50.006;36.180;2023-07-20T21:29:24;13.55;;;7.45;;
54665;SDS011;40566;50.006;36.180;2023-07-20T21:34:25;14.88;;;7.57;;
54665;SDS011;40566;50.006;36.180;2023-07-20T21:39:25;13.32;;;6.57;;
54665;SDS011;40566;50.006;36.180;2023-07-20T21:44:26;12.80;;;7.05;;
54665;SDS011;40566;50.006;36.180;2023-07-20T21:49:27;14.13;;;7.10;;
54665;SDS011;40566;50.006;36.180;2023-07-20T21:54:27;15.25;;;8.52;;
54665;SDS011;40566;50.006;36.180;2023-07-20T21:59:28;13.48;;;8.50;;
54665;SDS011;40566;50.006;36.180;2023-07-20T22:04:28;15.40;;;8.25;;
54665;SDS011;40566;50.006;36.180;2023-07-20T22:09:29;14.00;;;7.07;;
54665;SDS011;40566;50.006;36.180;2023-07-20T22:14:30;14.32;;;7.15;;
54665;SDS011;40566;50.006;36.180;2023-07-20T22:19:30;15.90;;;8.18;;
54665;SDS011;40566;50.006;36.180;2023-07-20T22:24:32;14.77;;;7.78;;
54665;SDS011;40566;50.006;36.180;2023-07-20T22:29:34;16.52;;;7.60;;
54665;SDS011;40566;50.006;36.180;2023-07-20T22:34:35;12.38;;;7.90;;
54665;SDS011;40566;50.006;36.180;2023-07-20T22:39:36;16.50;;;7.88;;
54665;SDS011;40566;50.006;36.180;2023-07-20T22:44:36;12.73;;;7.13;;
54665;SDS011;40566;50.006;36.180;2023-07-20T22:49:37;11.85;;;6.90;;
54665;SDS011;40566;50.006;36.180;2023-07-20T22:54:38;13.55;;;6.82;;
54665;SDS011;40566;50.006;36.180;2023-07-20T22:59:38;13.02;;;6.72;;
54665;SDS011;40566;50.006;36.180;2023-07-20T23:04:39;11.93;;;6.80;;
54665;SDS011;40566;50.006;36.180;2023-07-20T23:09:39;13.65;;;7.18;;
54665;SDS011;40566;50.006;36.180;2023-07-20T23:14:41;12.20;;;7.40;;
54665;SDS011;40566;50.006;36.180;2023-07-20T23:19:42;12.65;;;7.13;;
54665;SDS011;40566;50.006;36.180;2023-07-20T23:24:43;11.43;;;6.63;;
54665;SDS011;40566;50.006;36.180;2023-07-20T23:29:44;14.30;;;7.25;;
54665;SDS011;40566;50.006;36.180;2023-07-20T23:34:45;11.90;;;7.13;;
54665;SDS011;40566;50.006;36.180;2023-07-20T23:39:45;11.70;;;6.35;;
54665;SDS011;40566;50.006;36.180;2023-07-20T23:44:46;13.15;;;7.05;;
54665;SDS011;40566;50.006;36.180;2023-07-20T23:49:47;15.43;;;6.70;;
54665;SDS011;40566;50.006;36.180;2023-07-20T23:54:48;13.57;;;7.53;;
54665;SDS011;40566;50.006;36.180;2023-07-20T23:59:49;13.00;;;7.38;;
